sensor_id;sensor_type;location;lat;lon;timestamp;pressure;altitude;pressure_sealevel;temperature;humidity
51972;BME280;37991;49.662;10.060;2022-11-20T00:01:59;98852.31;;;1.35;100.00
51972;BME280;37991;49.662;10.060;2022-11-20T00:04:25;98855.91;;;1.31;100.00
51972;BME280;37991;49.662;10.060;2022-11-20T00:06:50;98864.31;;;1.36;100.00
51972;BME280;37991;49.662;10.060;2022-11-20T00:09:15;98860.94;;;1.34;100.00
51972;BME280;37991;49.662;10.060;2022-11-20T00:11:41;98880.63;;;1.36;100.00
51972;BME280;37991;49.662;10.060;2022-11-20T00:14:06;98869.59;;;1.33;100.00
51972;BME280;37991;49.662;10.060;2022-11-20T00:16:32;98860.28;;;1.29;100.00
51972;BME280;37991;49.662;10.060;2022-11-20T00:18:58;98855.97;;;1.29;100.00
51972;BME280;37991;49.662;10.060;2022-11-20T00:21:25;98863.34;;;1.38;100.00
51972;BME280;37991;49.662;10.060;2022-11-20T00:23:53;98847.16;;;1.35;100.00
51972;BME280;37991;49.662;10.060;2022-11-20T00:26:20;98851.34;;;1.37;100.00
51972;BME280;37991;49.662;10.060;2022-11-20T00:28:54;98848.94;;;1.33;100.00
51972;BME280;37991;49.662;10.060;2022-11-20T00:31:20;98848.09;;;1.32;100.00
51972;BME280;37991;49.662;10.060;2022-11-20T00:33:46;98855.84;;;1.32;100.00
51972;BME280;37991;49.662;10.060;2022-11-20T00:36:19;98849.66;;;1.36;100.00
51972;BME280;37991;49.662;10.060;2022-11-20T00:38:46;98850.59;;;1.34;100.00
51972;BME280;37991;49.662;10.060;2022-11-20T00:41:14;98848.94;;;1.33;100.00
51972;BME280;37991;49.662;10.060;2022-11-20T00:43:39;98843.72;;;1.34;100.00
51972;BME280;37991;49.662;10.060;2022-11-20T00:46:08;98845.41;;;1.35;100.00
51972;BME280;37991;49.662;10.060;2022-11-20T00:48:33;98845.44;;;1.34;100.00
51972;BME280;37991;49.662;10.060;2022-11-20T00:50:59;98837.91;;;1.29;100.00
51972;BME280;37991;49.662;10.060;2022-11-20T00:53:25;98845.59;;;1.31;100.00
51972;BME280;37991;49.662;10.060;2022-11-20T00:55:59;98854.09;;;1.33;100.00
51972;BME280;37991;49.662;10.060;2022-11-20T00:58:29;98848.09;;;1.32;100.00
51972;BME280;37991;49.662;10.060;2022-11-20T01:01:03;98851.63;;;1.30;100.00
51972;BME280;37991;49.662;10.060;2022-11-20T01:03:31;98850.75;;;1.31;100.00
51972;BME280;37991;49.662;10.060;2022-11-20T01:06:01;98847.31;;;1.30;100.00
51972;BME280;37991;49.662;10.060;2022-11-20T01:08:32;98849.97;;;1.29;100.00
51972;BME280;37991;49.662;10.060;2022-11-20T01:11:02;98848.31;;;1.28;100.00
51972;BME280;37991;49.662;10.060;2022-11-20T01:13:30;98843.00;;;1.31;100.00
51972;BME280;37991;49.662;10.060;2022-11-20T01:16:07;98849.19;;;1.27;100.00
51972;BME280;37991;49.662;10.060;2022-11-20T01:18:35;98848.41;;;1.25;100.00
51972;BME280;37991;49.662;10.060;2022-11-20T01:21:03;98844.94;;;1.26;100.00
51972;BME280;37991;49.662;10.060;2022-11-20T01:23:36;98837.19;;;1.26;100.00
51972;BME280;37991;49.662;10.060;2022-11-20T01:26:04;98847.50;;;1.26;100.00
51972;BME280;37991;49.662;10.060;2022-11-20T01:28:30;98845.63;;;1.29;100.00
51972;BME280;37991;49.662;10.060;2022-11-20T01:30:56;98848.34;;;1.26;100.00
51972;BME280;37991;49.662;10.060;2022-11-20T01:33:22;98845.22;;;1.18;100.00
51972;BME280;37991;49.662;10.060;2022-11-20T01:35:47;98855.06;;;1.08;100.00
51972;BME280;37991;49.662;10.060;2022-11-20T01:38:15;98858.19;;;1.16;100.00
51972;BME280;37991;49.662;10.060;2022-11-20T01:40:40;98855.41;;;1.21;100.00
51972;BME280;37991;49.662;10.060;2022-11-20T01:43:19;98854.47;;;1.24;100.00
51972;BME280;37991;49.662;10.060;2022-11-20T01:46:16;98846.59;;;1.27;100.00
51972;BME280;37991;49.662;10.060;2022-11-20T01:49:32;98840.69;;;1.25;100.00
51972;BME280;37991;49.662;10.060;2022-11-20T01:51:52;98839.75;;;1.26;100.00
51972;BME280;37991;49.662;10.060;2022-11-20T01:54:42;98835.28;;;1.31;100.00
51972;BME280;37991;49.662;10.060;2022-11-20T01:57:10;98835.31;;;1.29;100.00
51972;BME280;37991;49.662;10.060;2022-11-20T01:59:42;98838.84;;;1.27;100.00
51972;BME280;37991;49.662;10.060;2022-11-20T02:02:09;98830.16;;;1.29;100.00
51972;BME280;37991;49.662;10.060;2022-11-20T02:04:35;98841.31;;;1.30;100.00
51972;BME280;37991;49.662;10.060;2022-11-20T02:07:02;98828.53;;;1.27;100.00
51972;BME280;37991;49.662;10.060;2022-11-20T02:09:29;98826.06;;;1.24;100.00
51972;BME280;37991;49.662;10.060;2022-11-20T02:11:55;98831.91;;;1.29;100.00
51972;BME280;37991;49.662;10.060;2022-11-20T02:14:22;98831.94;;;1.27;100.00
51972;BME280;37991;49.662;10.060;2022-11-20T02:16:49;98838.81;;;1.28;100.00
51972;BME280;37991;49.662;10.060;2022-11-20T02:19:35;98832.75;;;1.29;100.00
51972;BME280;37991;49.662;10.060;2022-11-20T02:22:24;98835.31;;;1.29;100.00
51972;BME280;37991;49.662;10.060;2022-11-20T02:24:50;98832.97;;;1.23;100.00
51972;BME280;37991;49.662;10.060;2022-11-20T02:27:16;98833.19;;;1.19;100.00
51972;BME280;37991;49.662;10.060;2022-11-20T02:29:47;98836.50;;;1.21;100.00
51972;BME280;37991;49.662;10.060;2022-11-20T02:32:25;98837.53;;;1.16;100.00
51972;BME280;37991;49.662;10.060;2022-11-20T02:34:51;98840.97;;;1.17;100.00
51972;BME280;37991;49.662;10.060;2022-11-20T02:37:16;98832.38;;;1.16;100.00
51972;BME280;37991;49.662;10.060;2022-11-20T02:39:44;98838.50;;;1.14;100.00
51972;BME280;37991;49.662;10.060;2022-11-20T02:42:11;98837.75;;;1.12;100.00
51972;BME280;37991;49.662;10.060;2022-11-20T02:44:36;98834.25;;;1.13;100.00
51972;BME280;37991;49.662;10.060;2022-11-20T02:47:02;98836.13;;;1.09;100.00
51972;BME280;37991;49.662;10.060;2022-11-20T02:49:27;98829.44;;;1.04;100.00
51972;BME280;37991;49.662;10.060;2022-11-20T02:51:52;98829.88;;;0.93;100.00
51972;BME280;37991;49.662;10.060;2022-11-20T02:54:18;98822.38;;;0.87;100.00
51972;BME280;37991;49.662;10.060;2022-11-20T02:56:43;98826.69;;;0.86;100.00
51972;BME280;37991;49.662;10.060;2022-11-20T02:59:09;98829.22;;;0.88;100.00
51972;BME280;37991;49.662;10.060;2022-11-20T03:01:35;98822.38;;;0.87;100.00
51972;BME280;37991;49.662;10.060;2022-11-20T03:04:00;98823.13;;;0.89;100.00
51972;BME280;37991;49.662;10.060;2022-11-20T03:06:25;98824.13;;;0.86;100.00
51972;BME280;37991;49.662;10.060;2022-11-20T03:08:51;98822.19;;;0.91;100.00
51972;BME280;37991;49.662;10.060;2022-11-20T03:11:16;98820.56;;;0.89;100.00
51972;BME280;37991;49.662;10.060;2022-11-20T03:13:42;98817.97;;;0.89;100.00
51972;BME280;37991;49.662;10.060;2022-11-20T03:16:10;98813.72;;;0.88;100.00
51972;BME280;37991;49.662;10.060;2022-11-20T03:18:36;98813.84;;;0.85;100.00
51972;BME280;37991;49.662;10.060;2022-11-20T03:21:02;98806.22;;;0.82;100.00
51972;BME280;37991;49.662;10.060;2022-11-20T03:23:29;98809.88;;;0.76;100.00
51972;BME280;37991;49.662;10.060;2022-11-20T03:25:55;98810.66;;;0.78;100.00
51972;BME280;37991;49.662;10.060;2022-11-20T03:28:20;98812.41;;;0.78;100.00
51972;BME280;37991;49.662;10.060;2022-11-20T03:30:46;98804.31;;;0.65;100.00
51972;BME280;37991;49.662;10.060;2022-11-20T03:33:11;98804.91;;;0.72;100.00
51972;BME280;37991;49.662;10.060;2022-11-20T03:35:36;98808.22;;;0.75;100.00
51972;BME280;37991;49.662;10.060;2022-11-20T03:38:02;98805.59;;;0.77;100.00
51972;BME280;37991;49.662;10.060;2022-11-20T03:40:27;98810.00;;;0.73;100.00
51972;BME280;37991;49.662;10.060;2022-11-20T03:42:52;98817.72;;;0.73;100.00
51972;BME280;37991;49.662;10.060;2022-11-20T03:45:18;98810.66;;;0.78;100.00
51972;BME280;37991;49.662;10.060;2022-11-20T03:47:44;98812.34;;;0.79;100.00
51972;BME280;37991;49.662;10.060;2022-11-20T03:50:11;98808.78;;;0.83;100.00
51972;BME280;37991;49.662;10.060;2022-11-20T03:52:38;98803.53;;;0.85;100.00
51972;BME280;37991;49.662;10.060;2022-11-20T03:55:04;98800.13;;;0.84;100.00
51972;BME280;37991;49.662;10.060;2022-11-20T03:57:30;98798.44;;;0.83;100.00
51972;BME280;37991;49.662;10.060;2022-11-20T03:59:55;98798.22;;;0.89;100.00
51972;BME280;37991;49.662;10.060;2022-11-20T04:02:21;98807.63;;;0.90;100.00
51972;BME280;37991;49.662;10.060;2022-11-20T04:04:46;98793.06;;;0.89;100.00
51972;BME280;37991;49.662;10.060;2022-11-20T04:07:11;98789.94;;;0.81;100.00
51972;BME280;37991;49.662;10.060;2022-11-20T04:09:37;98795.31;;;0.75;100.00
51972;BME280;37991;49.662;10.060;2022-11-20T04:12:02;98795.09;;;0.81;100.00
51972;BME280;37991;49.662;10.060;2022-11-20T04:14:27;98792.25;;;0.87;100.00
51972;BME280;37991;49.662;10.060;2022-11-20T04:16:53;98796.72;;;0.84;100.00
51972;BME280;37991;49.662;10.060;2022-11-20T04:19:18;98793.22;;;0.85;100.00
51972;BME280;37991;49.662;10.060;2022-11-20T04:21:44;98799.22;;;0.85;100.00
51972;BME280;37991;49.662;10.060;2022-11-20T04:24:09;98796.63;;;0.85;100.00
51972;BME280;37991;49.662;10.060;2022-11-20T04:26:38;98803.41;;;0.88;100.00
51972;BME280;37991;49.662;10.060;2022-11-20T04:29:04;98801.75;;;0.87;100.00
51972;BME280;37991;49.662;10.060;2022-11-20T04:31:32;98786.41;;;0.84;100.00
51972;BME280;37991;49.662;10.060;2022-11-20T04:34:03;98785.38;;;0.88;100.00
51972;BME280;37991;49.662;10.060;2022-11-20T04:36:29;98780.09;;;0.91;100.00
51972;BME280;37991;49.662;10.060;2022-11-20T04:38:57;98776.78;;;0.87;100.00
51972;BME280;37991;49.662;10.060;2022-11-20T04:41:28;98779.28;;;0.89;100.00
51972;BME280;37991;49.662;10.060;2022-11-20T04:43:56;98785.31;;;0.89;100.00
51972;BME280;37991;49.662;10.060;2022-11-20T04:46:25;98778.28;;;0.93;100.00
51972;BME280;37991;49.662;10.060;2022-11-20T04:48:51;98764.53;;;0.92;100.00
51972;BME280;37991;49.662;10.060;2022-11-20T04:51:16;98776.56;;;0.93;100.00
51972;BME280;37991;49.662;10.060;2022-11-20T04:53:42;98771.44;;;0.92;100.00
51972;BME280;37991;49.662;10.060;2022-11-20T04:56:10;98778.78;;;0.81;100.00
51972;BME280;37991;49.662;10.060;2022-11-20T04:58:35;98767.50;;;0.83;100.00
51972;BME280;37991;49.662;10.060;2022-11-20T05:01:07;98766.47;;;0.87;100.00
51972;BME280;37991;49.662;10.060;2022-11-20T05:03:32;98766.28;;;0.92;100.00
51972;BME280;37991;49.662;10.060;2022-11-20T05:06:03;98765.53;;;0.90;100.00
51972;BME280;37991;49.662;10.060;2022-11-20T05:08:30;98763.91;;;0.87;100.00
51972;BME280;37991;49.662;10.060;2022-11-20T05:11:13;98768.09;;;0.90;100.00
51972;BME280;37991;49.662;10.060;2022-11-20T05:13:39;98775.03;;;0.88;100.00
51972;BME280;37991;49.662;10.060;2022-11-20T05:16:10;98768.03;;;0.91;100.00
51972;BME280;37991;49.662;10.060;2022-11-20T05:18:37;98764.41;;;0.96;100.00
51972;BME280;37991;49.662;10.060;2022-11-20T05:21:04;98773.03;;;0.96;100.00
51972;BME280;37991;49.662;10.060;2022-11-20T05:23:30;98778.41;;;0.90;100.00
51972;BME280;37991;49.662;10.060;2022-11-20T05:25:57;98784.41;;;0.90;100.00
51972;BME280;37991;49.662;10.060;2022-11-20T05:28:23;98771.56;;;0.89;100.00
51972;BME280;37991;49.662;10.060;2022-11-20T05:30:49;98775.75;;;0.91;100.00
51972;BME280;37991;49.662;10.060;2022-11-20T05:33:14;98765.56;;;0.88;100.00
51972;BME280;37991;49.662;10.060;2022-11-20T05:35:40;98763.69;;;0.92;100.00
51972;BME280;37991;49.662;10.060;2022-11-20T05:38:05;98766.16;;;0.95;100.00
51972;BME280;37991;49.662;10.060;2022-11-20T05:40:31;98770.31;;;0.99;100.00
51972;BME280;37991;49.662;10.060;2022-11-20T05:42:56;98762.69;;;0.96;100.00
51972;BME280;37991;49.662;10.060;2022-11-20T05:45:21;98755.69;;;1.00;100.00
51972;BME280;37991;49.662;10.060;2022-11-20T05:47:47;98761.53;;;1.03;100.00
51972;BME280;37991;49.662;10.060;2022-11-20T05:50:13;98758.19;;;1.01;100.00
51972;BME280;37991;49.662;10.060;2022-11-20T05:52:38;98764.25;;;1.00;100.00
51972;BME280;37991;49.662;10.060;2022-11-20T05:55:04;98760.84;;;1.00;100.00
51972;BME280;37991;49.662;10.060;2022-11-20T05:57:30;98764.53;;;0.92;100.00
51972;BME280;37991;49.662;10.060;2022-11-20T05:59:56;98761.00;;;0.95;100.00
51972;BME280;37991;49.662;10.060;2022-11-20T06:02:21;98757.78;;;0.90;100.00
51972;BME280;37991;49.662;10.060;2022-11-20T06:04:47;98757.66;;;0.93;100.00
51972;BME280;37991;49.662;10.060;2022-11-20T06:07:12;98758.25;;;1.00;100.00
51972;BME280;37991;49.662;10.060;2022-11-20T06:09:37;98759.94;;;1.01;100.00
51972;BME280;37991;49.662;10.060;2022-11-20T06:12:03;98759.94;;;1.01;100.00
51972;BME280;37991;49.662;10.060;2022-11-20T06:14:28;98753.81;;;1.03;100.00
51972;BME280;37991;49.662;10.060;2022-11-20T06:16:54;98751.16;;;1.05;100.00
51972;BME280;37991;49.662;10.060;2022-11-20T06:19:19;98746.13;;;1.02;100.00
51972;BME280;37991;49.662;10.060;2022-11-20T06:21:44;98746.81;;;1.05;100.00
51972;BME280;37991;49.662;10.060;2022-11-20T06:24:10;98750.97;;;1.09;100.00
51972;BME280;37991;49.662;10.060;2022-11-20T06:26:36;98758.50;;;1.14;100.00
51972;BME280;37991;49.662;10.060;2022-11-20T06:29:01;98755.09;;;1.13;100.00
51972;BME280;37991;49.662;10.060;2022-11-20T06:31:27;98754.97;;;1.16;100.00
51972;BME280;37991;49.662;10.060;2022-11-20T06:33:53;98753.59;;;1.08;100.00
51972;BME280;37991;49.662;10.060;2022-11-20T06:36:20;98758.84;;;1.06;100.00
51972;BME280;37991;49.662;10.060;2022-11-20T06:38:46;98752.72;;;1.09;100.00
51972;BME280;37991;49.662;10.060;2022-11-20T06:41:16;98759.56;;;1.10;100.00
51972;BME280;37991;49.662;10.060;2022-11-20T06:43:42;98763.75;;;1.12;100.00
51972;BME280;37991;49.662;10.060;2022-11-20T06:46:09;98772.34;;;1.13;100.00
51972;BME280;37991;49.662;10.060;2022-11-20T06:48:35;98762.91;;;1.12;100.00
51972;BME280;37991;49.662;10.060;2022-11-20T06:51:03;98780.13;;;1.11;100.00
51972;BME280;37991;49.662;10.060;2022-11-20T06:53:28;98773.16;;;1.13;100.00
51972;BME280;37991;49.662;10.060;2022-11-20T06:55:55;98771.41;;;1.14;100.00
51972;BME280;37991;49.662;10.060;2022-11-20T06:58:21;98770.47;;;1.16;100.00
51972;BME280;37991;49.662;10.060;2022-11-20T07:00:46;98766.84;;;1.21;100.00
51972;BME280;37991;49.662;10.060;2022-11-20T07:03:12;98766.78;;;1.22;100.00
51972;BME280;37991;49.662;10.060;2022-11-20T07:05:37;98762.78;;;1.15;100.00
51972;BME280;37991;49.662;10.060;2022-11-20T07:08:04;98772.00;;;1.21;100.00
51972;BME280;37991;49.662;10.060;2022-11-20T07:10:29;98778.00;;;1.21;100.00
51972;BME280;37991;49.662;10.060;2022-11-20T07:12:55;98777.84;;;1.26;100.00
51972;BME280;37991;49.662;10.060;2022-11-20T07:15:21;98778.50;;;1.31;100.00
51972;BME280;37991;49.662;10.060;2022-11-20T07:17:48;98778.50;;;1.31;100.00
51972;BME280;37991;49.662;10.060;2022-11-20T07:20:13;98786.25;;;1.31;100.00
51972;BME280;37991;49.662;10.060;2022-11-20T07:22:39;98790.50;;;1.32;100.00
51972;BME280;37991;49.662;10.060;2022-11-20T07:25:05;98782.66;;;1.33;100.00
51972;BME280;37991;49.662;10.060;2022-11-20T07:27:31;98781.84;;;1.33;100.00
51972;BME280;37991;49.662;10.060;2022-11-20T07:29:56;98779.19;;;1.34;100.00
51972;BME280;37991;49.662;10.060;2022-11-20T07:32:22;98774.03;;;1.34;100.00
51972;BME280;37991;49.662;10.060;2022-11-20T07:34:47;98763.59;;;1.37;100.00
51972;BME280;37991;49.662;10.060;2022-11-20T07:37:14;98758.59;;;1.33;100.00
51972;BME280;37991;49.662;10.060;2022-11-20T07:39:39;98766.94;;;1.39;100.00
51972;BME280;37991;49.662;10.060;2022-11-20T07:42:06;98766.94;;;1.39;100.00
51972;BME280;37991;49.662;10.060;2022-11-20T07:44:32;98770.34;;;1.40;100.00
51972;BME280;37991;49.662;10.060;2022-11-20T07:46:57;98766.81;;;1.43;100.00
51972;BME280;37991;49.662;10.060;2022-11-20T07:49:22;98769.38;;;1.43;100.00
51972;BME280;37991;49.662;10.060;2022-11-20T07:51:50;98768.53;;;1.42;100.00
51972;BME280;37991;49.662;10.060;2022-11-20T07:54:16;98757.31;;;1.43;100.00
51972;BME280;37991;49.662;10.060;2022-11-20T07:56:41;98754.59;;;1.46;100.00
51972;BME280;37991;49.662;10.060;2022-11-20T07:59:07;98760.41;;;1.51;100.00
51972;BME280;37991;49.662;10.060;2022-11-20T08:01:32;98755.38;;;1.48;100.00
51972;BME280;37991;49.662;10.060;2022-11-20T08:03:57;98762.34;;;1.46;100.00
51972;BME280;37991;49.662;10.060;2022-11-20T08:06:23;98756.16;;;1.50;100.00
51972;BME280;37991;49.662;10.060;2022-11-20T08:08:50;98762.22;;;1.49;100.00
51972;BME280;37991;49.662;10.060;2022-11-20T08:11:15;98765.72;;;1.48;100.00
51972;BME280;37991;49.662;10.060;2022-11-20T08:13:59;98767.50;;;1.46;100.00
51972;BME280;37991;49.662;10.060;2022-11-20T08:16:38;98770.28;;;1.42;100.00
51972;BME280;37991;49.662;10.060;2022-11-20T08:19:03;98771.25;;;1.39;100.00
51972;BME280;37991;49.662;10.060;2022-11-20T08:21:30;98773.66;;;1.44;100.00
51972;BME280;37991;49.662;10.060;2022-11-20T08:23:56;98768.41;;;1.45;100.00
51972;BME280;37991;49.662;10.060;2022-11-20T08:26:22;98775.78;;;1.54;100.00
51972;BME280;37991;49.662;10.060;2022-11-20T08:28:48;98771.66;;;1.50;100.00
51972;BME280;37991;49.662;10.060;2022-11-20T08:31:13;98790.81;;;1.45;100.00
51972;BME280;37991;49.662;10.060;2022-11-20T08:33:39;98795.91;;;1.46;100.00
51972;BME280;37991;49.662;10.060;2022-11-20T08:36:05;98791.91;;;1.39;100.00
51972;BME280;37991;49.662;10.060;2022-11-20T08:38:31;98793.53;;;1.42;100.00
51972;BME280;37991;49.662;10.060;2022-11-20T08:41:00;98796.28;;;1.37;100.00
51972;BME280;37991;49.662;10.060;2022-11-20T08:43:44;98786.59;;;1.22;100.00
51972;BME280;37991;49.662;10.060;2022-11-20T08:46:10;98794.94;;;1.28;100.00
51972;BME280;37991;49.662;10.060;2022-11-20T08:48:36;98784.25;;;1.37;100.00
51972;BME280;37991;49.662;10.060;2022-11-20T08:51:01;98789.16;;;1.44;100.00
51972;BME280;37991;49.662;10.060;2022-11-20T08:53:27;98793.41;;;1.45;100.00
51972;BME280;37991;49.662;10.060;2022-11-20T08:55:52;98790.38;;;1.35;100.00
51972;BME280;37991;49.662;10.060;2022-11-20T08:58:18;98785.69;;;1.23;100.00
51972;BME280;37991;49.662;10.060;2022-11-20T09:00:43;98783.13;;;1.43;100.00
51972;BME280;37991;49.662;10.060;2022-11-20T09:03:08;98782.63;;;1.55;100.00
51972;BME280;37991;49.662;10.060;2022-11-20T09:05:34;98773.06;;;1.37;100.00
51972;BME280;37991;49.662;10.060;2022-11-20T09:07:59;98773.47;;;1.48;100.00
51972;BME280;37991;49.662;10.060;2022-11-20T09:10:25;98777.41;;;1.57;100.00
51972;BME280;37991;49.662;10.060;2022-11-20T09:12:52;98768.66;;;1.59;100.00
51972;BME280;37991;49.662;10.060;2022-11-20T09:15:17;98762.34;;;1.67;100.00
51972;BME280;37991;49.662;10.060;2022-11-20T09:18:00;98768.00;;;1.75;100.00
51972;BME280;37991;49.662;10.060;2022-11-20T09:20:27;98763.53;;;1.78;100.00
51972;BME280;37991;49.662;10.060;2022-11-20T09:22:53;98761.69;;;1.82;100.00
51972;BME280;37991;49.662;10.060;2022-11-20T09:25:19;98767.47;;;1.87;100.00
51972;BME280;37991;49.662;10.060;2022-11-20T09:27:44;98768.53;;;1.83;100.00
51972;BME280;37991;49.662;10.060;2022-11-20T09:30:15;98766.59;;;1.68;100.00
51972;BME280;37991;49.662;10.060;2022-11-20T09:32:40;98760.34;;;1.73;100.00
51972;BME280;37991;49.662;10.060;2022-11-20T09:35:06;98762.59;;;1.81;100.00
51972;BME280;37991;49.662;10.060;2022-11-20T09:37:32;98771.03;;;1.84;100.00
51972;BME280;37991;49.662;10.060;2022-11-20T09:39:57;98765.69;;;1.89;100.00
51972;BME280;37991;49.662;10.060;2022-11-20T09:48:35;98766.69;;;2.05;100.00
51972;BME280;37991;49.662;10.060;2022-11-20T09:51:05;98785.75;;;2.03;100.00
51972;BME280;37991;49.662;10.060;2022-11-20T09:53:42;98815.78;;;1.85;100.00
51972;BME280;37991;49.662;10.060;2022-11-20T09:56:12;98779.78;;;1.82;100.00
51972;BME280;37991;49.662;10.060;2022-11-20T09:58:48;98782.19;;;1.85;100.00
51972;BME280;37991;49.662;10.060;2022-11-20T10:01:19;98806.44;;;1.82;100.00
51972;BME280;37991;49.662;10.060;2022-11-20T10:04:03;98807.53;;;1.77;100.00
51972;BME280;37991;49.662;10.060;2022-11-20T10:06:30;98814.91;;;1.86;100.00
51972;BME280;37991;49.662;10.060;2022-11-20T10:09:16;98816.56;;;1.87;100.00
51972;BME280;37991;49.662;10.060;2022-11-20T10:14:27;98801.97;;;1.86;100.00
51972;BME280;37991;49.662;10.060;2022-11-20T10:20:01;98797.84;;;1.82;100.00
51972;BME280;37991;49.662;10.060;2022-11-20T10:25:19;98786.97;;;1.94;100.00
51972;BME280;37991;49.662;10.060;2022-11-20T10:28:27;98792.09;;;1.96;100.00
51972;BME280;37991;49.662;10.060;2022-11-20T10:31:00;98790.00;;;2.04;100.00
51972;BME280;37991;49.662;10.060;2022-11-20T10:33:27;98783.59;;;2.13;100.00
51972;BME280;37991;49.662;10.060;2022-11-20T10:36:55;98786.53;;;2.24;100.00
51972;BME280;37991;49.662;10.060;2022-11-20T10:39:22;98783.38;;;2.36;100.00
51972;BME280;37991;49.662;10.060;2022-11-20T10:41:52;98787.16;;;2.48;100.00
51972;BME280;37991;49.662;10.060;2022-11-20T10:44:25;98785.09;;;2.56;100.00
51972;BME280;37991;49.662;10.060;2022-11-20T10:47:14;98778.56;;;2.66;100.00
51972;BME280;37991;49.662;10.060;2022-11-20T10:49:41;98776.47;;;2.74;100.00
51972;BME280;37991;49.662;10.060;2022-11-20T10:52:29;98776.56;;;2.90;100.00
51972;BME280;37991;49.662;10.060;2022-11-20T10:55:25;98769.75;;;3.07;100.00
51972;BME280;37991;49.662;10.060;2022-11-20T10:58:01;98767.72;;;3.13;100.00
51972;BME280;37991;49.662;10.060;2022-11-20T11:00:31;98748.53;;;3.17;100.00
51972;BME280;37991;49.662;10.060;2022-11-20T11:02:57;98748.22;;;3.23;100.00
51972;BME280;37991;49.662;10.060;2022-11-20T11:05:48;98751.34;;;3.30;100.00
51972;BME280;37991;49.662;10.060;2022-11-20T11:08:18;98745.63;;;3.41;100.00
51972;BME280;37991;49.662;10.060;2022-11-20T11:13:38;98737.16;;;3.55;100.00
51972;BME280;37991;49.662;10.060;2022-11-20T11:16:04;98728.31;;;3.59;100.00
51972;BME280;37991;49.662;10.060;2022-11-20T11:18:31;98738.44;;;3.63;100.00
51972;BME280;37991;49.662;10.060;2022-11-20T11:20:59;98732.03;;;3.70;100.00
51972;BME280;37991;49.662;10.060;2022-11-20T11:26:03;98740.25;;;3.79;100.00
51972;BME280;37991;49.662;10.060;2022-11-20T11:28:29;98737.59;;;3.80;100.00
51972;BME280;37991;49.662;10.060;2022-11-20T11:30:55;98731.38;;;3.83;100.00
51972;BME280;37991;49.662;10.060;2022-11-20T11:33:26;98720.94;;;3.84;100.00
51972;BME280;37991;49.662;10.060;2022-11-20T11:35:53;98732.75;;;3.90;100.00
51972;BME280;37991;49.662;10.060;2022-11-20T11:38:23;98728.41;;;3.90;100.00
51972;BME280;37991;49.662;10.060;2022-11-20T11:40:54;98722.25;;;3.93;100.00
51972;BME280;37991;49.662;10.060;2022-11-20T11:43:23;98723.81;;;3.95;100.00
51972;BME280;37991;49.662;10.060;2022-11-20T11:46:31;98722.13;;;3.94;100.00
51972;BME280;37991;49.662;10.060;2022-11-20T11:51:34;98713.69;;;3.91;100.00
51972;BME280;37991;49.662;10.060;2022-11-20T11:54:05;98707.59;;;3.92;100.00
51972;BME280;37991;49.662;10.060;2022-11-20T11:56:37;98704.94;;;3.93;100.00
51972;BME280;37991;49.662;10.060;2022-11-20T11:59:06;98710.69;;;3.99;100.00
51972;BME280;37991;49.662;10.060;2022-11-20T12:01:47;98709.78;;;4.00;100.00
51972;BME280;37991;49.662;10.060;2022-11-20T12:04:41;98704.44;;;4.03;100.00
51972;BME280;37991;49.662;10.060;2022-11-20T12:07:20;98702.53;;;4.06;100.00
51972;BME280;37991;49.662;10.060;2022-11-20T12:09:52;98692.88;;;4.08;100.00
51972;BME280;37991;49.662;10.060;2022-11-20T12:12:23;98695.47;;;4.08;100.00
51972;BME280;37991;49.662;10.060;2022-11-20T12:14:53;98708.44;;;4.08;100.00
51972;BME280;37991;49.662;10.060;2022-11-20T12:17:19;98704.84;;;4.11;100.00
51972;BME280;37991;49.662;10.060;2022-11-20T12:19:45;98708.28;;;4.11;100.00
51972;BME280;37991;49.662;10.060;2022-11-20T12:22:49;98704.03;;;4.10;100.00
51972;BME280;37991;49.662;10.060;2022-11-20T12:25:24;98694.66;;;4.08;100.00
51972;BME280;37991;49.662;10.060;2022-11-20T12:31:01;98695.31;;;4.11;100.00
51972;BME280;37991;49.662;10.060;2022-11-20T12:36:48;98698.84;;;4.10;100.00
51972;BME280;37991;49.662;10.060;2022-11-20T12:39:33;98693.81;;;4.07;100.00
51972;BME280;37991;49.662;10.060;2022-11-20T12:42:09;98697.56;;;4.02;100.00
51972;BME280;37991;49.662;10.060;2022-11-20T12:45:07;98707.34;;;3.96;100.00
51972;BME280;37991;49.662;10.060;2022-11-20T12:50:19;98708.75;;;3.86;100.00
51972;BME280;37991;49.662;10.060;2022-11-20T12:52:56;98699.28;;;3.85;100.00
51972;BME280;37991;49.662;10.060;2022-11-20T12:55:33;98690.53;;;3.88;100.00
51972;BME280;37991;49.662;10.060;2022-11-20T13:01:00;98689.44;;;3.92;100.00
51972;BME280;37991;49.662;10.060;2022-11-20T13:03:47;98689.22;;;3.96;100.00
51972;BME280;37991;49.662;10.060;2022-11-20T13:06:17;98686.38;;;4.01;100.00
51972;BME280;37991;49.662;10.060;2022-11-20T13:08:49;98693.16;;;4.04;100.00
51972;BME280;37991;49.662;10.060;2022-11-20T13:11:37;98686.88;;;4.08;100.00
51972;BME280;37991;49.662;10.060;2022-11-20T13:14:14;98688.63;;;4.07;100.00
51972;BME280;37991;49.662;10.060;2022-11-20T13:17:05;98695.47;;;4.08;100.00
51972;BME280;37991;49.662;10.060;2022-11-20T13:19:35;98696.19;;;4.12;100.00
51972;BME280;37991;49.662;10.060;2022-11-20T13:22:01;98695.41;;;4.10;100.00
51972;BME280;37991;49.662;10.060;2022-11-20T13:24:30;98684.59;;;4.02;100.00
51972;BME280;37991;49.662;10.060;2022-11-20T13:29:28;98691.53;;;4.01;100.00
51972;BME280;37991;49.662;10.060;2022-11-20T13:32:06;98695.47;;;4.08;100.00
51972;BME280;37991;49.662;10.060;2022-11-20T13:34:38;98692.16;;;4.06;100.00
51972;BME280;37991;49.662;10.060;2022-11-20T13:37:03;98692.00;;;4.09;100.00
51972;BME280;37991;49.662;10.060;2022-11-20T13:39:36;98689.13;;;4.14;100.00